sensor_id;sensor_type;location;lat;lon;timestamp;P1;durP1;ratioP1;P2;durP2;ratioP2
71665;SDS011;59503;53.486;10.196;2023-02-15T00:01:53;235.77;;;41.97;;
71665;SDS011;59503;53.486;10.196;2023-02-15T00:04:20;215.33;;;40.10;;
71665;SDS011;59503;53.486;10.196;2023-02-15T00:06:47;192.35;;;40.38;;
71665;SDS011;59503;53.486;10.196;2023-02-15T00:09:13;179.45;;;40.58;;
71665;SDS011;59503;53.486;10.196;2023-02-15T00:11:39;168.45;;;38.63;;
71665;SDS011;59503;53.486;10.196;2023-02-15T00:14:05;197.27;;;41.63;;
71665;SDS011;59503;53.486;10.196;2023-02-15T00:16:37;187.57;;;40.35;;
71665;SDS011;59503;53.486;10.196;2023-02-15T00:19:04;178.18;;;39.90;;
71665;SDS011;59503;53.486;10.196;2023-02-15T00:21:30;187.80;;;41.05;;
71665;SDS011;59503;53.486;10.196;2023-02-15T00:23:57;204.77;;;39.88;;
71665;SDS011;59503;53.486;10.196;2023-02-15T00:26:24;188.10;;;39.93;;
71665;SDS011;59503;53.486;10.196;2023-02-15T00:28:50;216.52;;;42.17;;
71665;SDS011;59503;53.486;10.196;2023-02-15T00:31:16;192.60;;;41.08;;
71665;SDS011;59503;53.486;10.196;2023-02-15T00:33:41;201.10;;;38.93;;
71665;SDS011;59503;53.486;10.196;2023-02-15T00:36:07;190.30;;;40.93;;
71665;SDS011;59503;53.486;10.196;2023-02-15T00:38:34;195.75;;;38.38;;
71665;SDS011;59503;53.486;10.196;2023-02-15T00:41:01;160.25;;;37.47;;
71665;SDS011;59503;53.486;10.196;2023-02-15T00:43:29;265.08;;;39.72;;
71665;SDS011;59503;53.486;10.196;2023-02-15T00:45:55;329.42;;;45.20;;
71665;SDS011;59503;53.486;10.196;2023-02-15T00:48:21;264.33;;;43.83;;
71665;SDS011;59503;53.486;10.196;2023-02-15T00:50:48;392.63;;;47.55;;
71665;SDS011;59503;53.486;10.196;2023-02-15T00:53:15;242.97;;;44.03;;
71665;SDS011;59503;53.486;10.196;2023-02-15T00:55:41;180.25;;;40.55;;
71665;SDS011;59503;53.486;10.196;2023-02-15T00:58:07;296.83;;;43.63;;
71665;SDS011;59503;53.486;10.196;2023-02-15T01:00:33;196.48;;;41.40;;
71665;SDS011;59503;53.486;10.196;2023-02-15T01:02:59;228.53;;;42.67;;
71665;SDS011;59503;53.486;10.196;2023-02-15T01:05:25;170.93;;;36.10;;
71665;SDS011;59503;53.486;10.196;2023-02-15T01:07:50;257.90;;;42.40;;
71665;SDS011;59503;53.486;10.196;2023-02-15T01:10:16;168.77;;;38.13;;
71665;SDS011;59503;53.486;10.196;2023-02-15T01:12:41;254.43;;;40.83;;
71665;SDS011;59503;53.486;10.196;2023-02-15T01:15:07;295.03;;;39.27;;
71665;SDS011;59503;53.486;10.196;2023-02-15T01:17:32;286.40;;;41.03;;
71665;SDS011;59503;53.486;10.196;2023-02-15T01:19:58;197.02;;;40.28;;
71665;SDS011;59503;53.486;10.196;2023-02-15T01:22:24;177.30;;;38.57;;
71665;SDS011;59503;53.486;10.196;2023-02-15T01:24:50;228.30;;;41.47;;
71665;SDS011;59503;53.486;10.196;2023-02-15T01:27:15;251.10;;;39.27;;
71665;SDS011;59503;53.486;10.196;2023-02-15T01:29:40;182.32;;;36.20;;
71665;SDS011;59503;53.486;10.196;2023-02-15T01:32:06;153.80;;;35.73;;
71665;SDS011;59503;53.486;10.196;2023-02-15T01:34:31;225.67;;;37.93;;
71665;SDS011;59503;53.486;10.196;2023-02-15T01:36:57;167.13;;;36.77;;
71665;SDS011;59503;53.486;10.196;2023-02-15T01:39:22;240.73;;;37.97;;
71665;SDS011;59503;53.486;10.196;2023-02-15T01:41:48;203.27;;;39.27;;
71665;SDS011;59503;53.486;10.196;2023-02-15T01:47:15;232.02;;;38.88;;
71665;SDS011;59503;53.486;10.196;2023-02-15T01:49:43;157.07;;;35.58;;
71665;SDS011;59503;53.486;10.196;2023-02-15T01:52:12;214.95;;;38.25;;
71665;SDS011;59503;53.486;10.196;2023-02-15T01:54:42;226.83;;;38.13;;
71665;SDS011;59503;53.486;10.196;2023-02-15T01:57:12;184.48;;;37.58;;
71665;SDS011;59503;53.486;10.196;2023-02-15T01:59:43;180.98;;;33.85;;
71665;SDS011;59503;53.486;10.196;2023-02-15T02:02:13;138.75;;;32.78;;
71665;SDS011;59503;53.486;10.196;2023-02-15T02:04:44;225.10;;;35.38;;
71665;SDS011;59503;53.486;10.196;2023-02-15T02:07:13;185.87;;;36.07;;
71665;SDS011;59503;53.486;10.196;2023-02-15T02:09:41;151.60;;;33.67;;
71665;SDS011;59503;53.486;10.196;2023-02-15T02:12:07;208.07;;;37.20;;
71665;SDS011;59503;53.486;10.196;2023-02-15T02:14:34;266.38;;;38.38;;
71665;SDS011;59503;53.486;10.196;2023-02-15T02:19:54;198.00;;;36.10;;
71665;SDS011;59503;53.486;10.196;2023-02-15T02:28:48;165.65;;;35.17;;
71665;SDS011;59503;53.486;10.196;2023-02-15T02:31:39;184.73;;;35.70;;
71665;SDS011;59503;53.486;10.196;2023-02-15T02:34:24;291.25;;;38.88;;
71665;SDS011;59503;53.486;10.196;2023-02-15T02:39:54;259.33;;;37.03;;
71665;SDS011;59503;53.486;10.196;2023-02-15T02:42:43;213.70;;;35.47;;
71665;SDS011;59503;53.486;10.196;2023-02-15T02:45:28;164.27;;;33.87;;
71665;SDS011;59503;53.486;10.196;2023-02-15T02:48:05;202.05;;;34.70;;
71665;SDS011;59503;53.486;10.196;2023-02-15T02:50:34;138.95;;;32.35;;
71665;SDS011;59503;53.486;10.196;2023-02-15T02:53:00;129.37;;;32.03;;
71665;SDS011;59503;53.486;10.196;2023-02-15T02:55:30;175.43;;;31.57;;
71665;SDS011;59503;53.486;10.196;2023-02-15T02:58:08;168.53;;;32.83;;
71665;SDS011;59503;53.486;10.196;2023-02-15T03:00:39;153.60;;;30.67;;
71665;SDS011;59503;53.486;10.196;2023-02-15T03:03:11;191.68;;;33.70;;
71665;SDS011;59503;53.486;10.196;2023-02-15T03:05:41;139.85;;;30.90;;
71665;SDS011;59503;53.486;10.196;2023-02-15T03:08:10;132.88;;;31.30;;
71665;SDS011;59503;53.486;10.196;2023-02-15T03:10:37;148.03;;;30.77;;
71665;SDS011;59503;53.486;10.196;2023-02-15T03:13:05;233.93;;;31.58;;
71665;SDS011;59503;53.486;10.196;2023-02-15T03:15:32;247.95;;;34.25;;
71665;SDS011;59503;53.486;10.196;2023-02-15T03:18:24;218.07;;;34.38;;
71665;SDS011;59503;53.486;10.196;2023-02-15T03:21:57;235.57;;;31.33;;
71665;SDS011;59503;53.486;10.196;2023-02-15T03:25:27;195.73;;;30.45;;
71665;SDS011;59503;53.486;10.196;2023-02-15T03:28:55;212.15;;;31.58;;
71665;SDS011;59503;53.486;10.196;2023-02-15T03:31:56;208.30;;;29.92;;
71665;SDS011;59503;53.486;10.196;2023-02-15T03:34:31;126.47;;;27.58;;
71665;SDS011;59503;53.486;10.196;2023-02-15T03:40:01;119.35;;;28.48;;
71665;SDS011;59503;53.486;10.196;2023-02-15T03:43:16;158.25;;;29.50;;
71665;SDS011;59503;53.486;10.196;2023-02-15T03:46:49;129.05;;;27.35;;
71665;SDS011;59503;53.486;10.196;2023-02-15T03:50:17;123.97;;;26.48;;
71665;SDS011;59503;53.486;10.196;2023-02-15T03:53:26;123.83;;;25.23;;
71665;SDS011;59503;53.486;10.196;2023-02-15T03:55:58;93.22;;;24.55;;
71665;SDS011;59503;53.486;10.196;2023-02-15T03:58:24;111.25;;;26.20;;
71665;SDS011;59503;53.486;10.196;2023-02-15T04:01:56;130.70;;;27.30;;
71665;SDS011;59503;53.486;10.196;2023-02-15T04:05:32;198.15;;;27.98;;
71665;SDS011;59503;53.486;10.196;2023-02-15T04:08:56;114.27;;;24.87;;
71665;SDS011;59503;53.486;10.196;2023-02-15T04:12:39;119.35;;;23.83;;
71665;SDS011;59503;53.486;10.196;2023-02-15T04:16:03;165.75;;;26.13;;
71665;SDS011;59503;53.486;10.196;2023-02-15T04:19:30;143.70;;;24.95;;
71665;SDS011;59503;53.486;10.196;2023-02-15T04:23:12;145.90;;;25.55;;
71665;SDS011;59503;53.486;10.196;2023-02-15T04:26:56;138.57;;;24.63;;
71665;SDS011;59503;53.486;10.196;2023-02-15T04:30:21;145.10;;;24.83;;
71665;SDS011;59503;53.486;10.196;2023-02-15T04:33:46;87.13;;;22.95;;
71665;SDS011;59503;53.486;10.196;2023-02-15T04:37:11;153.77;;;24.77;;
71665;SDS011;59503;53.486;10.196;2023-02-15T04:40:35;91.40;;;22.85;;
71665;SDS011;59503;53.486;10.196;2023-02-15T04:43:59;187.53;;;25.00;;
71665;SDS011;59503;53.486;10.196;2023-02-15T04:47:23;131.77;;;24.88;;
71665;SDS011;59503;53.486;10.196;2023-02-15T04:50:47;158.73;;;23.05;;
71665;SDS011;59503;53.486;10.196;2023-02-15T04:54:11;179.90;;;24.20;;
71665;SDS011;59503;53.486;10.196;2023-02-15T04:57:36;158.82;;;26.50;;
71665;SDS011;59503;53.486;10.196;2023-02-15T05:01:02;92.17;;;23.80;;
71665;SDS011;59503;53.486;10.196;2023-02-15T05:04:26;72.43;;;22.48;;
71665;SDS011;59503;53.486;10.196;2023-02-15T05:06:58;82.32;;;24.00;;
71665;SDS011;59503;53.486;10.196;2023-02-15T05:09:27;133.48;;;23.48;;
71665;SDS011;59503;53.486;10.196;2023-02-15T05:12:51;118.63;;;24.77;;
71665;SDS011;59503;53.486;10.196;2023-02-15T05:15:54;174.83;;;25.10;;
71665;SDS011;59503;53.486;10.196;2023-02-15T05:19:19;180.18;;;26.13;;
71665;SDS011;59503;53.486;10.196;2023-02-15T05:22:44;139.73;;;23.38;;
71665;SDS011;59503;53.486;10.196;2023-02-15T05:26:11;105.80;;;22.88;;
71665;SDS011;59503;53.486;10.196;2023-02-15T05:29:55;98.22;;;22.00;;
71665;SDS011;59503;53.486;10.196;2023-02-15T05:33:22;94.20;;;22.47;;
71665;SDS011;59503;53.486;10.196;2023-02-15T05:36:46;141.88;;;23.70;;
71665;SDS011;59503;53.486;10.196;2023-02-15T05:40:10;100.28;;;22.98;;
71665;SDS011;59503;53.486;10.196;2023-02-15T05:43:35;174.57;;;24.77;;
71665;SDS011;59503;53.486;10.196;2023-02-15T05:46:59;118.07;;;21.30;;
71665;SDS011;59503;53.486;10.196;2023-02-15T05:50:24;135.13;;;22.87;;
71665;SDS011;59503;53.486;10.196;2023-02-15T05:53:48;152.77;;;22.70;;
71665;SDS011;59503;53.486;10.196;2023-02-15T05:56:50;187.98;;;25.45;;
71665;SDS011;59503;53.486;10.196;2023-02-15T06:00:14;234.82;;;25.60;;
71665;SDS011;59503;53.486;10.196;2023-02-15T06:03:42;107.53;;;22.35;;
71665;SDS011;59503;53.486;10.196;2023-02-15T06:07:07;94.77;;;20.33;;
71665;SDS011;59503;53.486;10.196;2023-02-15T06:10:31;123.28;;;23.25;;
71665;SDS011;59503;53.486;10.196;2023-02-15T06:13:55;193.25;;;25.45;;
71665;SDS011;59503;53.486;10.196;2023-02-15T06:17:19;220.35;;;26.08;;
71665;SDS011;59503;53.486;10.196;2023-02-15T06:20:45;105.05;;;21.83;;
71665;SDS011;59503;53.486;10.196;2023-02-15T06:24:09;160.00;;;22.40;;
71665;SDS011;59503;53.486;10.196;2023-02-15T06:27:35;134.93;;;22.70;;
71665;SDS011;59503;53.486;10.196;2023-02-15T06:30:59;183.38;;;23.98;;
71665;SDS011;59503;53.486;10.196;2023-02-15T06:34:23;179.98;;;22.73;;
71665;SDS011;59503;53.486;10.196;2023-02-15T06:37:47;124.55;;;20.95;;
71665;SDS011;59503;53.486;10.196;2023-02-15T06:41:11;125.67;;;20.93;;
71665;SDS011;59503;53.486;10.196;2023-02-15T06:44:35;86.03;;;20.85;;
71665;SDS011;59503;53.486;10.196;2023-02-15T06:47:59;133.15;;;22.23;;
71665;SDS011;59503;53.486;10.196;2023-02-15T06:51:23;91.78;;;20.38;;
71665;SDS011;59503;53.486;10.196;2023-02-15T06:54:47;154.15;;;21.55;;
71665;SDS011;59503;53.486;10.196;2023-02-15T06:58:11;139.87;;;22.30;;
71665;SDS011;59503;53.486;10.196;2023-02-15T07:01:35;109.57;;;20.83;;
71665;SDS011;59503;53.486;10.196;2023-02-15T07:04:59;74.43;;;19.67;;
71665;SDS011;59503;53.486;10.196;2023-02-15T07:08:24;60.47;;;18.00;;
71665;SDS011;59503;53.486;10.196;2023-02-15T07:11:48;69.35;;;17.98;;
71665;SDS011;59503;53.486;10.196;2023-02-15T07:15:03;74.50;;;19.60;;
71665;SDS011;59503;53.486;10.196;2023-02-15T07:17:35;144.68;;;22.85;;
71665;SDS011;59503;53.486;10.196;2023-02-15T07:20:59;89.95;;;20.27;;
71665;SDS011;59503;53.486;10.196;2023-02-15T07:24:15;128.60;;;21.27;;
71665;SDS011;59503;53.486;10.196;2023-02-15T07:26:57;119.20;;;20.67;;
71665;SDS011;59503;53.486;10.196;2023-02-15T07:37:12;132.73;;;22.83;;
71665;SDS011;59503;53.486;10.196;2023-02-15T07:39:37;76.47;;;20.90;;
71665;SDS011;59503;53.486;10.196;2023-02-15T07:42:03;59.67;;;17.40;;
71665;SDS011;59503;53.486;10.196;2023-02-15T07:44:28;125.80;;;22.67;;
71665;SDS011;59503;53.486;10.196;2023-02-15T07:46:53;94.73;;;19.50;;
71665;SDS011;59503;53.486;10.196;2023-02-15T07:49:19;121.97;;;20.33;;
71665;SDS011;59503;53.486;10.196;2023-02-15T07:51:44;101.67;;;18.50;;
71665;SDS011;59503;53.486;10.196;2023-02-15T07:54:10;150.03;;;21.27;;
71665;SDS011;59503;53.486;10.196;2023-02-15T07:56:36;88.57;;;19.70;;
71665;SDS011;59503;53.486;10.196;2023-02-15T07:59:01;123.57;;;18.50;;
71665;SDS011;59503;53.486;10.196;2023-02-15T08:01:32;131.52;;;20.42;;
71665;SDS011;59503;53.486;10.196;2023-02-15T08:04:00;103.22;;;18.48;;
71665;SDS011;59503;53.486;10.196;2023-02-15T08:06:26;149.40;;;20.67;;
71665;SDS011;59503;53.486;10.196;2023-02-15T08:08:53;86.47;;;20.38;;
71665;SDS011;59503;53.486;10.196;2023-02-15T08:11:26;169.37;;;23.00;;
71665;SDS011;59503;53.486;10.196;2023-02-15T08:14:03;128.30;;;21.90;;
71665;SDS011;59503;53.486;10.196;2023-02-15T08:16:46;89.43;;;20.55;;
71665;SDS011;59503;53.486;10.196;2023-02-15T08:19:22;137.90;;;20.67;;
71665;SDS011;59503;53.486;10.196;2023-02-15T08:21:50;129.00;;;20.33;;
71665;SDS011;59503;53.486;10.196;2023-02-15T08:24:19;150.43;;;21.73;;
71665;SDS011;59503;53.486;10.196;2023-02-15T08:26:47;116.32;;;19.45;;
71665;SDS011;59503;53.486;10.196;2023-02-15T08:29:13;92.13;;;20.00;;
71665;SDS011;59503;53.486;10.196;2023-02-15T08:31:41;69.40;;;18.50;;
71665;SDS011;59503;53.486;10.196;2023-02-15T08:34:08;140.33;;;21.43;;
71665;SDS011;59503;53.486;10.196;2023-02-15T08:36:36;113.97;;;19.98;;
71665;SDS011;59503;53.486;10.196;2023-02-15T08:39:02;60.27;;;17.87;;
71665;SDS011;59503;53.486;10.196;2023-02-15T08:41:31;124.80;;;21.75;;
71665;SDS011;59503;53.486;10.196;2023-02-15T08:44:00;122.22;;;21.27;;
71665;SDS011;59503;53.486;10.196;2023-02-15T08:46:27;98.13;;;20.98;;
71665;SDS011;59503;53.486;10.196;2023-02-15T08:48:54;56.83;;;19.20;;
71665;SDS011;59503;53.486;10.196;2023-02-15T08:51:21;108.37;;;20.67;;
71665;SDS011;59503;53.486;10.196;2023-02-15T08:53:52;104.70;;;19.67;;
71665;SDS011;59503;53.486;10.196;2023-02-15T08:56:21;135.93;;;20.60;;
71665;SDS011;59503;53.486;10.196;2023-02-15T08:58:54;79.38;;;20.63;;
71665;SDS011;59503;53.486;10.196;2023-02-15T09:01:22;57.23;;;18.60;;
71665;SDS011;59503;53.486;10.196;2023-02-15T09:03:51;149.45;;;24.35;;
71665;SDS011;59503;53.486;10.196;2023-02-15T09:06:20;164.23;;;22.80;;
71665;SDS011;59503;53.486;10.196;2023-02-15T09:08:47;78.60;;;18.85;;
71665;SDS011;59503;53.486;10.196;2023-02-15T09:13:42;89.63;;;19.55;;
71665;SDS011;59503;53.486;10.196;2023-02-15T09:16:08;127.93;;;22.73;;
71665;SDS011;59503;53.486;10.196;2023-02-15T09:18:35;68.20;;;18.95;;
71665;SDS011;59503;53.486;10.196;2023-02-15T09:21:21;136.60;;;21.85;;
71665;SDS011;59503;53.486;10.196;2023-02-15T09:23:49;70.37;;;18.53;;
71665;SDS011;59503;53.486;10.196;2023-02-15T09:26:21;68.25;;;18.60;;
71665;SDS011;59503;53.486;10.196;2023-02-15T09:28:51;95.68;;;19.77;;
71665;SDS011;59503;53.486;10.196;2023-02-15T09:31:19;57.13;;;18.58;;
71665;SDS011;59503;53.486;10.196;2023-02-15T09:33:46;60.67;;;18.40;;
71665;SDS011;59503;53.486;10.196;2023-02-15T09:36:20;47.53;;;17.23;;
71665;SDS011;59503;53.486;10.196;2023-02-15T09:38:47;66.97;;;19.02;;
71665;SDS011;59503;53.486;10.196;2023-02-15T09:52:39;55.47;;;17.98;;
71665;SDS011;59503;53.486;10.196;2023-02-15T10:04:02;55.20;;;17.97;;
71665;SDS011;59503;53.486;10.196;2023-02-15T10:17:39;54.57;;;17.30;;
71665;SDS011;59503;53.486;10.196;2023-02-15T10:26:12;50.70;;;17.60;;
71665;SDS011;59503;53.486;10.196;2023-02-15T10:29:02;61.78;;;18.30;;
71665;SDS011;59503;53.486;10.196;2023-02-15T10:31:37;61.63;;;17.07;;
71665;SDS011;59503;53.486;10.196;2023-02-15T10:34:22;69.70;;;18.27;;
71665;SDS011;59503;53.486;10.196;2023-02-15T10:52:39;51.80;;;18.70;;
71665;SDS011;59503;53.486;10.196;2023-02-15T11:03:21;45.17;;;18.23;;
71665;SDS011;59503;53.486;10.196;2023-02-15T11:06:16;42.50;;;18.98;;
71665;SDS011;59503;53.486;10.196;2023-02-15T11:08:51;53.78;;;17.85;;
71665;SDS011;59503;53.486;10.196;2023-02-15T11:11:23;48.38;;;18.67;;
71665;SDS011;59503;53.486;10.196;2023-02-15T11:13:53;44.05;;;18.17;;
71665;SDS011;59503;53.486;10.196;2023-02-15T11:16:25;49.83;;;19.33;;
71665;SDS011;59503;53.486;10.196;2023-02-15T11:19:03;44.97;;;18.75;;
71665;SDS011;59503;53.486;10.196;2023-02-15T11:21:38;45.38;;;18.77;;
71665;SDS011;59503;53.486;10.196;2023-02-15T11:24:11;46.95;;;18.63;;
71665;SDS011;59503;53.486;10.196;2023-02-15T11:26:41;43.67;;;19.15;;
71665;SDS011;59503;53.486;10.196;2023-02-15T11:31:55;42.63;;;18.75;;
71665;SDS011;59503;53.486;10.196;2023-02-15T11:34:30;47.22;;;20.92;;
71665;SDS011;59503;53.486;10.196;2023-02-15T11:37:01;42.72;;;17.65;;
71665;SDS011;59503;53.486;10.196;2023-02-15T11:39:51;49.55;;;18.48;;
71665;SDS011;59503;53.486;10.196;2023-02-15T11:42:20;43.67;;;18.90;;
71665;SDS011;59503;53.486;10.196;2023-02-15T11:47:29;46.25;;;20.05;;
71665;SDS011;59503;53.486;10.196;2023-02-15T11:49:55;54.40;;;20.97;;
71665;SDS011;59503;53.486;10.196;2023-02-15T11:52:20;58.65;;;20.85;;
71665;SDS011;59503;53.486;10.196;2023-02-15T11:54:46;46.37;;;20.53;;
71665;SDS011;59503;53.486;10.196;2023-02-15T11:57:19;49.58;;;21.80;;
71665;SDS011;59503;53.486;10.196;2023-02-15T11:59:49;51.40;;;20.60;;
71665;SDS011;59503;53.486;10.196;2023-02-15T12:02:21;52.87;;;22.23;;
71665;SDS011;59503;53.486;10.196;2023-02-15T12:04:52;54.67;;;22.38;;
71665;SDS011;59503;53.486;10.196;2023-02-15T12:07:35;51.22;;;22.05;;
71665;SDS011;59503;53.486;10.196;2023-02-15T12:10:27;47.20;;;21.25;;
71665;SDS011;59503;53.486;10.196;2023-02-15T12:13:08;44.97;;;19.33;;
71665;SDS011;59503;53.486;10.196;2023-02-15T12:15:36;45.27;;;20.43;;
71665;SDS011;59503;53.486;10.196;2023-02-15T12:18:03;42.63;;;18.85;;
71665;SDS011;59503;53.486;10.196;2023-02-15T12:20:32;37.17;;;18.42;;
71665;SDS011;59503;53.486;10.196;2023-02-15T12:23:02;38.53;;;17.10;;
71665;SDS011;59503;53.486;10.196;2023-02-15T12:25:33;40.17;;;17.95;;
71665;SDS011;59503;53.486;10.196;2023-02-15T12:28:15;38.90;;;17.92;;
71665;SDS011;59503;53.486;10.196;2023-02-15T12:31:02;38.65;;;16.83;;
71665;SDS011;59503;53.486;10.196;2023-02-15T12:33:39;42.20;;;17.55;;
71665;SDS011;59503;53.486;10.196;2023-02-15T12:36:29;33.57;;;15.40;;
71665;SDS011;59503;53.486;10.196;2023-02-15T12:41:38;33.53;;;16.63;;
71665;SDS011;59503;53.486;10.196;2023-02-15T12:44:17;33.85;;;16.30;;
71665;SDS011;59503;53.486;10.196;2023-02-15T12:46:57;36.95;;;17.27;;
71665;SDS011;59503;53.486;10.196;2023-02-15T12:49:23;32.73;;;16.23;;
71665;SDS011;59503;53.486;10.196;2023-02-15T12:54:38;36.47;;;17.45;;
71665;SDS011;59503;53.486;10.196;2023-02-15T12:57:14;34.78;;;16.23;;
71665;SDS011;59503;53.486;10.196;2023-02-15T12:59:50;33.33;;;16.25;;
71665;SDS011;59503;53.486;10.196;2023-02-15T13:02:31;34.47;;;16.73;;
71665;SDS011;59503;53.486;10.196;2023-02-15T13:08:01;39.00;;;16.15;;
71665;SDS011;59503;53.486;10.196;2023-02-15T13:10:36;30.42;;;14.98;;
71665;SDS011;59503;53.486;10.196;2023-02-15T13:13:09;34.47;;;15.55;;
71665;SDS011;59503;53.486;10.196;2023-02-15T13:15:37;33.83;;;16.10;;
71665;SDS011;59503;53.486;10.196;2023-02-15T13:18:09;32.40;;;16.08;;
71665;SDS011;59503;53.486;10.196;2023-02-15T13:20:41;32.88;;;15.73;;
71665;SDS011;59503;53.486;10.196;2023-02-15T13:23:19;36.10;;;18.55;;
71665;SDS011;59503;53.486;10.196;2023-02-15T13:25:52;30.77;;;15.75;;
71665;SDS011;59503;53.486;10.196;2023-02-15T13:28:22;31.30;;;16.60;;
71665;SDS011;59503;53.486;10.196;2023-02-15T13:30:52;32.88;;;16.10;;
71665;SDS011;59503;53.486;10.196;2023-02-15T13:33:31;31.85;;;16.52;;
71665;SDS011;59503;53.486;10.196;2023-02-15T13:36:23;29.60;;;14.65;;
71665;SDS011;59503;53.486;10.196;2023-02-15T13:41:53;36.17;;;15.40;;
71665;SDS011;59503;53.486;10.196;2023-02-15T13:47:27;29.88;;;14.48;;
71665;SDS011;59503;53.486;10.196;2023-02-15T13:55:50;28.77;;;14.87;;
71665;SDS011;59503;53.486;10.196;2023-02-15T13:58:24;28.92;;;15.40;;
71665;SDS011;59503;53.486;10.196;2023-02-15T14:01:19;29.25;;;15.07;;
71665;SDS011;59503;53.486;10.196;2023-02-15T14:04:17;31.88;;;15.80;;
71665;SDS011;59503;53.486;10.196;2023-02-15T14:12:35;32.30;;;16.58;;
71665;SDS011;59503;53.486;10.196;2023-02-15T14:18:04;34.17;;;18.15;;
71665;SDS011;59503;53.486;10.196;2023-02-15T14:25:42;35.70;;;16.33;;
71665;SDS011;59503;53.486;10.196;2023-02-15T14:28:28;34.50;;;17.55;;
71665;SDS011;59503;53.486;10.196;2023-02-15T14:31:03;35.72;;;16.80;;
71665;SDS011;59503;53.486;10.196;2023-02-15T14:33:39;33.92;;;17.10;;
71665;SDS011;59503;53.486;10.196;2023-02-15T14:36:08;34.70;;;17.17;;
71665;SDS011;59503;53.486;10.196;2023-02-15T14:42:02;33.08;;;16.58;;
71665;SDS011;59503;53.486;10.196;2023-02-15T14:44:35;34.25;;;17.00;;
71665;SDS011;59503;53.486;10.196;2023-02-15T14:47:11;33.70;;;17.05;;
71665;SDS011;59503;53.486;10.196;2023-02-15T14:49:45;35.70;;;17.00;;
71665;SDS011;59503;53.486;10.196;2023-02-15T14:52:13;35.47;;;17.38;;
71665;SDS011;59503;53.486;10.196;2023-02-15T14:59:45;35.42;;;17.77;;
71665;SDS011;59503;53.486;10.196;2023-02-15T15:07:59;42.65;;;19.27;;
71665;SDS011;59503;53.486;10.196;2023-02-15T15:10:35;38.88;;;17.67;;
71665;SDS011;59503;53.486;10.196;2023-02-15T15:13:34;40.70;;;18.98;;
71665;SDS011;59503;53.486;10.196;2023-02-15T15:15:55;39.03;;;18.67;;
71665;SDS011;59503;53.486;10.196;2023-02-15T15:21:10;42.30;;;19.85;;
71665;SDS011;59503;53.486;10.196;2023-02-15T15:26:34;39.78;;;18.88;;
71665;SDS011;59503;53.486;10.196;2023-02-15T15:29:02;35.47;;;17.00;;
71665;SDS011;59503;53.486;10.196;2023-02-15T15:42:13;40.10;;;18.47;;
71665;SDS011;59503;53.486;10.196;2023-02-15T15:48:42;38.55;;;17.33;;
71665;SDS011;59503;53.486;10.196;2023-02-15T15:51:22;41.47;;;18.77;;
71665;SDS011;59503;53.486;10.196;2023-02-15T15:53:56;41.50;;;18.23;;
71665;SDS011;59503;53.486;10.196;2023-02-15T15:56:24;41.67;;;18.37;;
71665;SDS011;59503;53.486;10.196;2023-02-15T15:59:00;37.00;;;18.52;;
71665;SDS011;59503;53.486;10.196;2023-02-15T16:01:30;41.65;;;18.70;;
71665;SDS011;59503;53.486;10.196;2023-02-15T16:04:01;36.47;;;16.77;;
71665;SDS011;59503;53.486;10.196;2023-02-15T16:06:33;37.53;;;17.20;;
71665;SDS011;59503;53.486;10.196;2023-02-15T16:09:12;40.07;;;17.27;;
71665;SDS011;59503;53.486;10.196;2023-02-15T16:11:43;38.55;;;17.33;;
71665;SDS011;59503;53.486;10.196;2023-02-15T16:14:15;42.63;;;18.85;;
71665;SDS011;59503;53.486;10.196;2023-02-15T16:16:49;44.15;;;18.52;;
71665;SDS011;59503;53.486;10.196;2023-02-15T16:19:18;50.33;;;20.90;;
71665;SDS011;59503;53.486;10.196;2023-02-15T16:21:47;46.47;;;19.60;;
71665;SDS011;59503;53.486;10.196;2023-02-15T16:24:36;53.15;;;21.67;;
71665;SDS011;59503;53.486;10.196;2023-02-15T16:29:47;61.45;;;23.27;;
71665;SDS011;59503;53.486;10.196;2023-02-15T16:34:59;61.60;;;23.60;;
71665;SDS011;59503;53.486;10.196;2023-02-15T16:37:27;65.50;;;24.90;;
71665;SDS011;59503;53.486;10.196;2023-02-15T16:39:58;61.53;;;24.02;;
71665;SDS011;59503;53.486;10.196;2023-02-15T16:42:24;67.47;;;25.67;;
71665;SDS011;59503;53.486;10.196;2023-02-15T16:45:08;70.32;;;25.00;;
71665;SDS011;59503;53.486;10.196;2023-02-15T16:47:44;69.00;;;26.30;;
71665;SDS011;59503;53.486;10.196;2023-02-15T16:50:20;74.20;;;27.10;;
71665;SDS011;59503;53.486;10.196;2023-02-15T16:52:49;62.90;;;24.13;;
71665;SDS011;59503;53.486;10.196;2023-02-15T16:55:23;69.82;;;25.65;;
71665;SDS011;59503;53.486;10.196;2023-02-15T16:57:59;72.38;;;26.83;;
71665;SDS011;59503;53.486;10.196;2023-02-15T17:00:30;64.38;;;24.67;;
71665;SDS011;59503;53.486;10.196;2023-02-15T17:05:40;69.70;;;26.10;;
71665;SDS011;59503;53.486;10.196;2023-02-15T17:08:29;67.28;;;23.55;;
71665;SDS011;59503;53.486;10.196;2023-02-15T17:13:35;69.03;;;26.17;;
71665;SDS011;59503;53.486;10.196;2023-02-15T17:18:26;68.23;;;24.47;;
71665;SDS011;59503;53.486;10.196;2023-02-15T17:20:57;68.03;;;23.83;;
71665;SDS011;59503;53.486;10.196;2023-02-15T17:25:51;69.95;;;24.85;;
71665;SDS011;59503;53.486;10.196;2023-02-15T17:28:17;66.33;;;24.80;;
71665;SDS011;59503;53.486;10.196;2023-02-15T17:30:45;70.57;;;25.00;;
71665;SDS011;59503;53.486;10.196;2023-02-15T17:36:18;58.08;;;22.48;;
71665;SDS011;59503;53.486;10.196;2023-02-15T17:41:21;56.27;;;22.03;;
71665;SDS011;59503;53.486;10.196;2023-02-15T17:43:47;60.08;;;23.70;;
71665;SDS011;59503;53.486;10.196;2023-02-15T17:46:12;61.27;;;22.97;;
71665;SDS011;59503;53.486;10.196;2023-02-15T17:48:39;59.10;;;22.85;;
71665;SDS011;59503;53.486;10.196;2023-02-15T17:51:09;60.10;;;22.63;;
71665;SDS011;59503;53.486;10.196;2023-02-15T17:53:37;64.07;;;23.30;;
71665;SDS011;59503;53.486;10.196;2023-02-15T17:56:03;64.18;;;23.80;;
71665;SDS011;59503;53.486;10.196;2023-02-15T17:58:34;70.63;;;25.23;;
71665;SDS011;59503;53.486;10.196;2023-02-15T18:01:01;62.70;;;23.03;;
71665;SDS011;59503;53.486;10.196;2023-02-15T18:03:50;58.13;;;22.75;;
71665;SDS011;59503;53.486;10.196;2023-02-15T18:06:36;58.67;;;22.50;;
71665;SDS011;59503;53.486;10.196;2023-02-15T18:09:23;59.33;;;22.20;;
71665;SDS011;59503;53.486;10.196;2023-02-15T18:14:44;64.60;;;22.60;;
71665;SDS011;59503;53.486;10.196;2023-02-15T18:17:10;64.60;;;23.60;;
71665;SDS011;59503;53.486;10.196;2023-02-15T18:19:38;67.88;;;25.45;;
71665;SDS011;59503;53.486;10.196;2023-02-15T18:22:13;65.17;;;24.37;;
71665;SDS011;59503;53.486;10.196;2023-02-15T18:24:41;72.67;;;24.30;;
71665;SDS011;59503;53.486;10.196;2023-02-15T18:27:09;65.15;;;24.08;;
71665;SDS011;59503;53.486;10.196;2023-02-15T18:29:36;70.97;;;23.58;;
71665;SDS011;59503;53.486;10.196;2023-02-15T18:32:01;68.93;;;24.50;;
71665;SDS011;59503;53.486;10.196;2023-02-15T18:34:33;71.50;;;25.60;;